createdAt,value
2023-01-03T00:00:28.221Z,68.17
2023-01-03T00:03:18.700Z,68.14
2023-01-03T00:06:19.324Z,68.10
2023-01-03T00:09:10.893Z,68.08
2023-01-03T00:12:18.583Z,68.04
2023-01-03T00:15:10.537Z,67.99
2023-01-03T00:18:01.241Z,68.03
2023-01-03T00:20:51.115Z,67.96
2023-01-03T00:23:41.705Z,68.01
2023-01-03T00:26:32.603Z,68.04
2023-01-03T00:29:22.901Z,67.99
2023-01-03T00:32:13.950Z,68.02
2023-01-03T00:35:05.776Z,67.94
2023-01-03T00:37:56.122Z,67.95
2023-01-03T00:40:46.067Z,67.98
2023-01-03T00:43:36.497Z,68.13
2023-01-03T00:46:26.789Z,68.29
2023-01-03T00:49:16.699Z,68.29
2023-01-03T00:52:07.070Z,68.40
2023-01-03T00:54:57.267Z,68.59
2023-01-03T00:57:47.039Z,68.71
2023-01-03T01:00:37.240Z,68.86
2023-01-03T01:03:27.758Z,68.98
2023-01-03T01:06:20.867Z,69.07
2023-01-03T01:09:14.155Z,69.16
2023-01-03T01:12:04.649Z,69.29
2023-01-03T01:14:55.137Z,69.36
2023-01-03T01:17:45.219Z,69.33
2023-01-03T01:20:35.113Z,69.49
2023-01-03T01:23:25.402Z,69.52
2023-01-03T01:26:17.840Z,69.60
2023-01-03T01:29:08.349Z,69.69
2023-01-03T01:31:58.758Z,69.69
2023-01-03T01:34:49.332Z,69.67
2023-01-03T01:37:39.647Z,69.66
2023-01-03T01:40:29.680Z,69.68
2023-01-03T01:43:43.144Z,69.73
2023-01-03T01:46:35.882Z,69.73
2023-01-03T01:49:29.433Z,69.66
2023-01-03T01:52:22.959Z,69.62
2023-01-03T01:55:20.296Z,69.63
2023-01-03T01:58:12.726Z,69.65
2023-01-03T02:01:05.130Z,69.55
2023-01-03T02:04:01.627Z,69.54
2023-01-03T02:06:53.239Z,69.47
2023-01-03T02:09:42.934Z,69.52
2023-01-03T02:12:57.507Z,69.42
2023-01-03T02:16:12.189Z,69.32
2023-01-03T02:19:24.451Z,69.35
2023-01-03T02:22:39.536Z,69.39
2023-01-03T02:26:04.737Z,69.33
2023-01-03T02:29:22.811Z,69.42
2023-01-03T02:32:18.899Z,69.35
2023-01-03T02:35:17.585Z,69.42
2023-01-03T02:38:14.736Z,69.46
2023-01-03T02:41:14.961Z,69.46
2023-01-03T02:44:11.121Z,69.41
2023-01-03T02:47:08.011Z,69.44
2023-01-03T02:50:03.184Z,69.46
2023-01-03T02:52:56.454Z,69.48
2023-01-03T02:55:49.033Z,69.52
2023-01-03T02:58:41.971Z,69.61
2023-01-03T03:01:35.013Z,69.68
2023-01-03T03:04:26.373Z,69.79
2023-01-03T03:07:21.711Z,69.76
2023-01-03T03:10:30.937Z,69.88
2023-01-03T03:13:30.329Z,70.00
2023-01-03T03:16:45.134Z,69.99
2023-01-03T03:19:57.910Z,70.14
2023-01-03T03:23:12.525Z,69.97
2023-01-03T03:26:08.714Z,69.78
2023-01-03T03:29:05.772Z,69.81
2023-01-03T03:31:56.986Z,69.84
2023-01-03T03:34:48.288Z,69.86
2023-01-03T03:37:42.136Z,69.99
2023-01-03T03:40:57.381Z,70.06
2023-01-03T03:44:22.808Z,70.16
2023-01-03T03:47:24.737Z,70.23
2023-01-03T03:50:21.115Z,70.31
2023-01-03T03:53:15.420Z,70.35
2023-01-03T03:56:10.997Z,70.44
2023-01-03T03:59:06.676Z,70.53
2023-01-03T04:02:00.184Z,70.66
2023-01-03T04:04:54.160Z,70.75
2023-01-03T04:07:44.823Z,70.92
2023-01-03T04:10:37.840Z,71.01
2023-01-03T04:13:28.663Z,70.99
2023-01-03T04:16:18.909Z,71.07
2023-01-03T04:19:10.136Z,71.10
2023-01-03T04:22:00.603Z,71.15
2023-01-03T04:24:50.959Z,71.03
2023-01-03T04:27:41.413Z,70.86
2023-01-03T04:30:32.407Z,70.81
2023-01-03T04:33:22.773Z,70.75
2023-01-03T04:36:15.448Z,70.79
2023-01-03T04:39:06.739Z,70.82
2023-01-03T04:41:57.340Z,70.78
2023-01-03T04:44:47.785Z,70.74
2023-01-03T04:47:38.129Z,70.81
2023-01-03T04:50:30.344Z,70.71
2023-01-03T04:53:20.860Z,70.63
2023-01-03T04:56:11.357Z,70.66
2023-01-03T04:59:02.226Z,71.05
2023-01-03T05:01:53.151Z,71.12
2023-01-03T05:04:43.089Z,71.27
2023-01-03T05:07:33.451Z,71.21
2023-01-03T05:10:23.940Z,71.17
2023-01-03T05:13:13.843Z,71.19
2023-01-03T05:16:09.599Z,71.27
2023-01-03T05:19:00.551Z,71.18
2023-01-03T05:22:08.678Z,71.11
2023-01-03T05:25:16.466Z,71.10
2023-01-03T05:28:10.942Z,71.07
2023-01-03T05:31:05.438Z,71.02
2023-01-03T05:33:57.169Z,71.05
2023-01-03T05:36:47.254Z,71.03
2023-01-03T05:39:37.631Z,71.11
2023-01-03T05:42:28.436Z,71.12
2023-01-03T05:45:19.817Z,71.14
2023-01-03T05:48:11.094Z,71.19
2023-01-03T05:51:01.419Z,71.22
2023-01-03T05:53:52.499Z,70.93
2023-01-03T05:56:42.755Z,70.76
2023-01-03T05:59:33.369Z,70.66
2023-01-03T06:02:24.341Z,70.55
2023-01-03T06:05:14.672Z,70.46
2023-01-03T06:08:05.237Z,70.41
2023-01-03T06:10:55.207Z,70.36
2023-01-03T06:13:46.664Z,70.27
2023-01-03T06:16:54.535Z,70.17
2023-01-03T06:19:47.346Z,70.20
2023-01-03T06:22:37.769Z,70.13
2023-01-03T06:25:28.129Z,70.10
2023-01-03T06:28:18.207Z,70.19
2023-01-03T06:31:09.155Z,70.06
2023-01-03T06:33:59.820Z,70.03
2023-01-03T06:36:50.200Z,70.03
2023-01-03T06:39:40.199Z,69.88
2023-01-03T06:42:43.876Z,69.78
2023-01-03T06:45:51.724Z,69.78
2023-01-03T06:48:59.959Z,69.77
2023-01-03T06:52:10.283Z,69.92
2023-01-03T06:55:00.645Z,70.19
2023-01-03T06:57:50.458Z,70.35
2023-01-03T07:00:42.758Z,70.42
2023-01-03T07:03:33.708Z,70.59
2023-01-03T07:06:24.507Z,70.62
2023-01-03T07:09:15.198Z,70.67
2023-01-03T07:12:25.874Z,70.80
2023-01-03T07:15:16.406Z,71.24
2023-01-03T07:18:06.665Z,71.18
2023-01-03T07:20:56.760Z,71.20
2023-01-03T07:23:47.199Z,71.15
2023-01-03T07:26:37.670Z,70.72
2023-01-03T07:29:27.936Z,70.84
2023-01-03T07:32:18.183Z,69.79
2023-01-03T07:35:10.221Z,69.03
2023-01-03T07:38:00.312Z,68.55
2023-01-03T07:40:50.800Z,68.35
2023-01-03T07:43:43.970Z,68.28
2023-01-03T07:46:35.323Z,67.94
2023-01-03T07:49:26.209Z,67.60
2023-01-03T07:52:17.033Z,67.55
2023-01-03T07:55:09.635Z,67.58
2023-01-03T07:58:00.134Z,67.45
2023-01-03T08:00:50.296Z,66.74
2023-01-03T08:03:41.016Z,66.26
2023-01-03T08:06:30.738Z,65.93
2023-01-03T08:09:38.544Z,65.61
2023-01-03T08:12:46.654Z,65.28
2023-01-03T08:15:36.568Z,65.11
2023-01-03T08:18:29.114Z,65.22
2023-01-03T08:21:20.144Z,65.31
2023-01-03T08:24:11.305Z,65.06
2023-01-03T08:27:01.137Z,65.20
2023-01-03T08:29:51.377Z,65.27
2023-01-03T08:32:41.981Z,65.42
2023-01-03T08:35:35.951Z,65.52
2023-01-03T08:38:30.349Z,65.57
2023-01-03T08:41:26.051Z,65.50
2023-01-03T08:44:16.959Z,65.54
2023-01-03T08:47:09.623Z,65.55
2023-01-03T08:50:01.174Z,65.56
2023-01-03T08:52:51.936Z,65.50
2023-01-03T08:55:42.544Z,65.35
2023-01-03T08:58:33.345Z,65.28
2023-01-03T09:01:23.378Z,65.30
2023-01-03T09:04:13.664Z,65.12
2023-01-03T09:07:04.216Z,65.09
2023-01-03T09:09:55.301Z,65.04
2023-01-03T09:12:45.446Z,64.91
2023-01-03T09:15:35.563Z,64.88
2023-01-03T09:18:25.775Z,64.81
2023-01-03T09:21:16.082Z,64.61
2023-01-03T09:24:06.754Z,64.25
2023-01-03T09:26:57.314Z,64.25
2023-01-03T09:29:49.008Z,64.13
2023-01-03T09:32:39.298Z,64.04
2023-01-03T09:35:29.964Z,63.88
2023-01-03T09:38:20.597Z,63.68
2023-01-03T09:41:20.021Z,63.56
2023-01-03T09:44:11.595Z,63.56
2023-01-03T09:47:02.743Z,63.50
2023-01-03T09:53:23.594Z,63.04
2023-01-03T09:56:32.695Z,62.92
2023-01-03T09:59:40.190Z,62.96
2023-01-03T10:03:08.599Z,62.98
2023-01-03T10:06:16.769Z,62.88
2023-01-03T10:09:19.606Z,62.76
2023-01-03T10:12:25.127Z,63.04
2023-01-03T10:15:26.691Z,63.02
2023-01-03T10:18:34.097Z,62.83
2023-01-03T10:21:32.359Z,62.57
2023-01-03T10:24:26.371Z,62.71
2023-01-03T10:27:22.457Z,62.36
2023-01-03T10:30:19.921Z,62.06
2023-01-03T10:33:29.373Z,61.73
2023-01-03T10:36:23.040Z,61.33
2023-01-03T10:39:14.652Z,61.19
2023-01-03T10:42:08.365Z,60.87
2023-01-03T10:45:05.045Z,60.53
2023-01-03T10:48:03.418Z,60.62
2023-01-03T10:50:54.644Z,60.59
2023-01-03T10:53:45.016Z,60.67
2023-01-03T10:56:38.397Z,60.45
2023-01-03T10:59:30.247Z,60.34
2023-01-03T11:02:22.058Z,60.34
2023-01-03T11:05:18.673Z,59.84
2023-01-03T11:08:17.656Z,59.82
2023-01-03T11:11:26.763Z,59.52
2023-01-03T11:14:26.191Z,58.80
2023-01-03T11:17:17.511Z,58.54
2023-01-03T11:20:20.762Z,58.23
2023-01-03T11:23:19.706Z,57.97
2023-01-03T11:26:19.693Z,57.85
2023-01-03T11:29:31.369Z,57.79
2023-01-03T11:32:39.940Z,57.41
2023-01-03T11:36:03.851Z,56.33
2023-01-03T11:39:06.435Z,56.19
2023-01-03T11:42:22.924Z,57.26
2023-01-03T11:45:27.183Z,56.79
2023-01-03T11:48:34.501Z,56.53
2023-01-03T11:51:33.626Z,56.36
2023-01-03T11:54:46.572Z,56.61
2023-01-03T11:57:49.962Z,57.22
2023-01-03T12:00:46.867Z,56.93
2023-01-03T12:03:49.512Z,56.54
2023-01-03T12:06:44.507Z,56.47
2023-01-03T12:09:42.977Z,56.57
2023-01-03T12:12:45.738Z,56.92
2023-01-03T12:15:45.604Z,57.02
2023-01-03T12:18:45.647Z,57.12
2023-01-03T12:21:39.426Z,57.45
2023-01-03T12:24:37.374Z,57.74
2023-01-03T12:27:34.018Z,57.96
2023-01-03T12:30:42.144Z,57.80
2023-01-03T12:33:39.050Z,58.00
2023-01-03T12:36:42.664Z,58.18
2023-01-03T12:39:43.783Z,58.52
2023-01-03T12:42:42.765Z,57.66
2023-01-03T12:45:45.587Z,56.75
2023-01-03T12:48:56.312Z,55.51
2023-01-03T12:51:46.866Z,55.61
2023-01-03T12:54:44.502Z,56.35
2023-01-03T12:57:58.688Z,56.45
2023-01-03T13:00:58.537Z,56.28
2023-01-03T13:03:54.665Z,55.96
2023-01-03T13:06:51.505Z,55.55
2023-01-03T13:09:46.054Z,55.69
2023-01-03T13:12:41.092Z,55.76
2023-01-03T13:15:37.077Z,55.91
2023-01-03T13:18:36.936Z,56.02
2023-01-03T13:22:02.927Z,55.80
2023-01-03T13:24:54.119Z,55.73
2023-01-03T13:27:51.586Z,55.79
2023-01-03T13:30:41.198Z,55.53
2023-01-03T13:33:55.019Z,55.39
2023-01-03T13:37:22.404Z,55.32
2023-01-03T13:40:59.623Z,55.11
2023-01-03T13:43:41.563Z,55.31
2023-01-03T13:46:35.146Z,55.76
2023-01-03T13:49:27.752Z,56.12
2023-01-03T13:52:40.102Z,56.36
2023-01-03T13:55:54.596Z,56.48
2023-01-03T13:58:48.567Z,56.64
2023-01-03T14:01:56.840Z,56.84
2023-01-03T14:05:12.752Z,57.15
2023-01-03T14:08:33.337Z,57.37
2023-01-03T14:11:44.105Z,57.61
2023-01-03T14:14:39.229Z,57.81
2023-01-03T14:17:33.492Z,57.99
2023-01-03T14:20:28.547Z,58.11
2023-01-03T14:23:58.319Z,58.04
2023-01-03T14:26:35.018Z,58.16
2023-01-03T14:29:27.662Z,58.19
2023-01-03T14:32:29.005Z,58.30
2023-01-03T14:35:39.040Z,58.13
2023-01-03T14:38:31.776Z,58.21
2023-01-03T14:41:39.603Z,58.53
2023-01-03T14:44:31.135Z,58.89
2023-01-03T14:47:21.531Z,59.15
2023-01-03T14:50:21.134Z,59.41
2023-01-03T14:53:14.739Z,59.57
2023-01-03T14:56:07.242Z,59.66
2023-01-03T14:58:58.049Z,59.78
2023-01-03T15:01:50.762Z,59.78
2023-01-03T15:04:50.253Z,59.82
2023-01-03T15:07:43.979Z,59.87
2023-01-03T15:10:42.579Z,59.88
2023-01-03T15:13:35.462Z,59.96
2023-01-03T15:16:31.785Z,59.94
2023-01-03T15:19:26.001Z,59.97
2023-01-03T15:22:20.253Z,59.93
2023-01-03T15:25:19.749Z,59.95
2023-01-03T15:28:25.465Z,60.00
2023-01-03T15:31:31.575Z,60.09
2023-01-03T15:34:25.122Z,60.15
2023-01-03T15:37:20.495Z,60.15
2023-01-03T15:40:15.097Z,60.25
2023-01-03T15:43:22.183Z,60.13
2023-01-03T15:46:16.456Z,60.09
2023-01-03T15:49:08.482Z,60.13
2023-01-03T15:52:00.264Z,60.19
2023-01-03T15:54:50.510Z,60.27
2023-01-03T15:57:40.818Z,60.36
2023-01-03T16:00:31.308Z,60.36
2023-01-03T16:03:23.201Z,60.27
2023-01-03T16:06:14.249Z,60.26
2023-01-03T16:09:05.160Z,60.18
2023-01-03T16:11:59.938Z,60.09
2023-01-03T16:14:53.151Z,60.03
2023-01-03T16:17:43.814Z,60.09
2023-01-03T16:20:34.288Z,60.14
2023-01-03T16:23:30.687Z,60.16
2023-01-03T16:26:21.733Z,60.25
2023-01-03T16:29:12.646Z,60.41
2023-01-03T16:32:03.485Z,60.63
2023-01-03T16:35:01.974Z,60.74
2023-01-03T16:37:52.361Z,60.81
2023-01-03T16:40:43.984Z,60.83
2023-01-03T16:43:36.367Z,60.85
2023-01-03T16:46:28.094Z,60.93
2023-01-03T16:49:19.129Z,60.97
2023-01-03T16:52:15.519Z,60.95
2023-01-03T16:55:14.384Z,60.92
2023-01-03T16:58:04.990Z,60.94
2023-01-03T17:00:55.328Z,60.96
2023-01-03T17:03:45.889Z,60.89
2023-01-03T17:06:38.608Z,60.89
2023-01-03T17:09:36.041Z,60.90
2023-01-03T17:12:28.981Z,60.84
2023-01-03T17:15:19.706Z,60.91
2023-01-03T17:18:19.173Z,60.80
2023-01-03T17:21:18.121Z,60.70
2023-01-03T17:24:15.887Z,60.67
2023-01-03T17:27:08.287Z,60.50
2023-01-03T17:30:03.807Z,60.43
2023-01-03T17:32:53.843Z,60.54
2023-01-03T17:35:46.917Z,60.59
2023-01-03T17:38:38.293Z,60.58
2023-01-03T17:41:28.898Z,60.53
2023-01-03T17:44:19.708Z,60.43
2023-01-03T17:47:46.865Z,60.18
2023-01-03T17:50:38.146Z,59.79
2023-01-03T17:53:29.484Z,59.71
2023-01-03T17:56:21.520Z,59.63
2023-01-03T17:59:15.099Z,59.56
2023-01-03T18:02:14.506Z,59.39
2023-01-03T18:05:17.275Z,59.71
2023-01-03T18:08:20.642Z,59.98
2023-01-03T18:11:15.615Z,60.02
2023-01-03T18:14:05.678Z,60.25
2023-01-03T18:16:55.817Z,60.49
2023-01-03T18:19:46.069Z,60.74
2023-01-03T18:22:36.841Z,61.06
2023-01-03T18:25:28.199Z,61.21
2023-01-03T18:28:22.772Z,61.35
2023-01-03T18:31:17.744Z,61.51
2023-01-03T18:34:09.197Z,61.76
2023-01-03T18:36:59.475Z,61.72
2023-01-03T18:39:50.138Z,61.80
2023-01-03T18:42:57.672Z,61.78
2023-01-03T18:45:47.938Z,61.86
2023-01-03T18:48:38.462Z,61.93
2023-01-03T18:51:31.264Z,62.03
2023-01-03T18:54:22.126Z,61.95
2023-01-03T18:57:14.584Z,62.04
2023-01-03T19:00:06.939Z,62.04
2023-01-03T19:02:57.920Z,61.96
2023-01-03T19:05:48.224Z,62.01
2023-01-03T19:08:38.365Z,61.96
2023-01-03T19:11:31.851Z,62.00
2023-01-03T19:14:22.214Z,61.98
2023-01-03T19:17:15.286Z,61.84
2023-01-03T19:20:06.159Z,61.80
2023-01-03T19:22:57.178Z,61.72
2023-01-03T19:25:47.555Z,61.83
2023-01-03T19:28:40.610Z,61.90
2023-01-03T19:31:39.222Z,61.95
2023-01-03T19:34:29.883Z,62.04
2023-01-03T19:37:21.178Z,62.04
2023-01-03T19:40:16.327Z,61.92
2023-01-03T19:43:07.641Z,62.02
2023-01-03T19:45:58.410Z,61.85
2023-01-03T19:48:49.000Z,62.02
2023-01-03T19:51:39.540Z,62.22
2023-01-03T19:54:31.199Z,62.27
2023-01-03T19:57:24.701Z,62.25
2023-01-03T20:00:22.642Z,62.13
2023-01-03T20:03:24.349Z,62.02
2023-01-03T20:06:18.002Z,61.94
2023-01-03T20:09:09.032Z,61.88
2023-01-03T20:11:59.445Z,61.79
2023-01-03T20:14:54.834Z,61.77
2023-01-03T20:17:45.933Z,61.62
2023-01-03T20:20:36.612Z,61.47
2023-01-03T20:23:28.473Z,61.27
2023-01-03T20:26:24.500Z,61.20
2023-01-03T20:29:15.048Z,61.25
2023-01-03T20:32:04.883Z,61.22
2023-01-03T20:34:54.665Z,61.22
2023-01-03T20:37:46.967Z,61.27
2023-01-03T20:40:36.456Z,61.29
2023-01-03T20:43:26.284Z,61.35
2023-01-03T20:46:20.490Z,61.35
2023-01-03T20:49:16.830Z,61.46
2023-01-03T20:52:07.453Z,61.42
2023-01-03T20:54:57.381Z,61.34
2023-01-03T20:57:47.670Z,61.22
2023-01-03T21:00:39.601Z,61.19
2023-01-03T21:03:29.467Z,61.23
2023-01-03T21:06:21.674Z,61.21
2023-01-03T21:09:13.259Z,61.17
2023-01-03T21:12:03.114Z,61.26
2023-01-03T21:14:53.308Z,61.31
2023-01-03T21:17:47.151Z,61.39
2023-01-03T21:20:41.153Z,61.54
2023-01-03T21:23:32.025Z,61.59
2023-01-03T21:26:22.323Z,61.58
2023-01-03T21:29:12.279Z,61.63
2023-01-03T21:32:02.454Z,61.66
2023-01-03T21:34:52.852Z,61.55
2023-01-03T21:37:44.773Z,61.51
2023-01-03T21:40:34.787Z,61.55
2023-01-03T21:43:24.459Z,61.53
2023-01-03T21:46:18.879Z,61.60
2023-01-03T21:49:08.679Z,61.55
2023-01-03T21:51:58.496Z,61.54
2023-01-03T21:54:48.554Z,61.57
2023-01-03T21:57:38.801Z,61.54
2023-01-03T22:00:28.871Z,61.48
2023-01-03T22:03:37.520Z,61.43
2023-01-03T22:06:28.057Z,61.37
2023-01-03T22:09:36.277Z,61.35
2023-01-03T22:12:26.688Z,61.24
2023-01-03T22:15:17.624Z,61.25
2023-01-03T22:18:11.080Z,61.18
2023-01-03T22:21:05.341Z,61.16
2023-01-03T22:23:55.699Z,61.13
2023-01-03T22:26:46.360Z,61.27
2023-01-03T22:29:36.443Z,61.47
2023-01-03T22:32:27.569Z,61.46
2023-01-03T22:35:19.152Z,61.44
2023-01-03T22:38:08.769Z,61.62
2023-01-03T22:40:58.689Z,61.65
2023-01-03T22:43:49.061Z,61.63
2023-01-03T22:46:39.256Z,61.58
2023-01-03T22:49:29.400Z,61.57
2023-01-03T22:52:19.940Z,61.48
2023-01-03T22:55:11.832Z,61.41
2023-01-03T22:58:02.038Z,61.39
2023-01-03T23:00:52.071Z,61.43
2023-01-03T23:03:43.099Z,61.44
2023-01-03T23:06:35.348Z,61.47
2023-01-03T23:09:26.658Z,61.62
2023-01-03T23:12:34.712Z,61.56
2023-01-03T23:15:25.851Z,61.65
2023-01-03T23:18:17.442Z,61.72
2023-01-03T23:21:10.990Z,61.74
2023-01-03T23:24:02.284Z,61.84
2023-01-03T23:26:53.933Z,61.81
2023-01-03T23:29:44.016Z,61.81
2023-01-03T23:32:34.936Z,61.74
2023-01-03T23:35:25.805Z,61.82
2023-01-03T23:38:16.608Z,61.89
2023-01-03T23:41:10.643Z,61.81
2023-01-03T23:44:00.806Z,61.73
2023-01-03T23:46:51.296Z,61.66
2023-01-03T23:49:41.737Z,61.71
2023-01-03T23:52:33.708Z,61.77
2023-01-03T23:55:24.235Z,61.76
2023-01-03T23:58:13.987Z,61.65
